Latest Weather Forecast - Monday 13th May 2019 (6am)

Forecast Period:  6:00 am - 13th May, 2019 to 12:00 Noon - 13th May, 2019  
Synopsis: The Atlantic High Pressure System will be the dominant feature
Forecast:

Fair to partly cloudy, slightly hazy and breezy with a few brief isolated showers

Weather 
Advisory/Warning:
None
Winds: Generally from the East at 20 to 35 km/h (12 to 22 mph)
Sea Conditions: Moderate in open water; with swells 2.0 m to 2.5 m
Marine 
Advisory:
Small craft operators and sea bathers should exercise caution
Upcoming Tides:
High: 1:31 pm    
Low: 7:19 am 7:37 pm  

Aviation WX

[Source: ADDS]
METAR
TVSA 161100Z 07008KT 9999 BKN016 SCT030 BKN070 28/25 Q1015 =
TVSA 161105Z 1612/1712 09006KT 9999 SCT018 PROB30 TEMPO 1706/1712 09015G25KT SHRA BKN014 SCT034
TAF
TVSA 161105Z 1612/1712 09006KT 9999 SCT018 PROB30 TEMPO 1706/1712 09015G25KT SHRA BKN014 SCT034 =
SR / SS: 09:38 / 22:32 UTC (Sunrise Sunset 2019-06-16)